Time;durP1;ratioP1;P1;durP2;ratioP2;P2;SDS_P1;SDS_P2;PMS_P1;PMS_P2;Temp;Humidity;BMP_temperature;BMP_pressure;BME280_temperature;BME280_humidity;BME280_pressure;Samples;Min_cycle;Max_cycle;Signal;HPM_P1;HPM_P2
2022/04/22 04:02:35;;;;;;;337.77;13.27;;;2.40;96.30;;;;;;4992915;23;20480;-78
2022/04/22 04:05:02;;;;;;;246.83;10.90;;;2.40;96.30;;;;;;4976693;28;20519;-78
2022/04/22 04:07:27;;;;;;;155.00;11.17;;;2.40;96.30;;;;;;4993846;28;20182;-78
2022/04/22 04:18:05;;;;;;;107.20;12.20;;;2.60;96.30;;;;;;4984414;28;20390;-78
2022/04/22 04:28:18;;;;;;;115.93;14.87;;;;;;;;;;5177065;23;20511;-78
2022/04/22 04:30:45;;;;;;;122.70;12.83;;;2.60;96.30;;;;;;4994012;28;20435;-79
2022/04/22 04:33:11;;;;;;;159.57;13.47;;;2.60;96.30;;;;;;4993729;28;21023;-80
2022/04/22 04:35:40;;;;;;;36.40;11.77;;;2.70;96.30;;;;;;4992823;28;20488;-79
2022/04/22 04:38:07;;;;;;;62.43;11.50;;;2.80;96.30;;;;;;4992746;28;20610;-79
2022/04/22 04:40:33;;;;;;;82.87;14.20;;;2.80;96.30;;;;;;4993259;28;20433;-79
2022/04/22 04:43:00;;;;;;;64.47;13.73;;;2.80;96.30;;;;;;4993360;28;20412;-78
2022/04/22 04:45:27;;;;;;;44.10;11.70;;;2.80;96.30;;;;;;4975870;28;20574;-78
2022/04/22 04:47:52;;;;;;;96.03;25.27;;;2.80;96.30;;;;;;4992666;28;20923;-78
2022/04/22 04:50:18;;;;;;;187.37;74.37;;;2.90;96.30;;;;;;4992765;28;20409;-78
2022/04/22 04:52:47;;;;;;;54.67;18.37;;;2.90;96.30;;;;;;4994243;28;20197;-78
2022/04/22 04:55:16;;;;;;;63.43;20.87;;;2.90;96.30;;;;;;4975579;28;20842;-78
2022/04/22 04:57:42;;;;;;;17.07;10.30;;;2.90;96.30;;;;;;4975065;28;20453;-78
2022/04/22 05:00:10;;;;;;;66.60;13.57;;;2.90;96.30;;;;;;4993825;28;20405;-78
2022/04/22 05:02:36;;;;;;;24.67;9.83;;;3.00;96.30;;;;;;4993436;28;20401;-79
2022/04/22 05:05:03;;;;;;;45.47;11.87;;;3.00;96.30;;;;;;4993167;28;20761;-79
2022/04/22 05:07:28;;;;;;;28.57;12.00;;;3.00;96.30;;;;;;4975314;28;20456;-79
2022/04/22 05:09:54;;;;;;;18.57;11.60;;;3.00;96.30;;;;;;4976353;28;20412;-79
2022/04/22 05:12:20;;;;;;;20.07;10.30;;;3.00;96.30;;;;;;4992869;28;20689;-79
2022/04/22 05:14:48;;;;;;;16.63;10.60;;;3.00;96.30;;;;;;4992848;28;20768;-79
2022/04/22 05:17:13;;;;;;;41.63;11.60;;;3.00;96.30;;;;;;4974709;28;20715;-80
2022/04/22 05:19:39;;;;;;;21.00;10.03;;;3.00;96.30;;;;;;4974694;28;20448;-79
2022/04/22 05:22:04;;;;;;;49.00;11.50;;;3.00;96.30;;;;;;4992326;28;20197;-78
2022/04/22 05:24:35;;;;;;;32.93;10.70;;;3.00;96.30;;;;;;4992556;28;20264;-78
2022/04/22 05:27:01;;;;;;;18.20;12.03;;;3.10;96.30;;;;;;4992155;28;20189;-78
2022/04/22 05:34:54;;;;;;;55.47;13.73;;;3.40;96.30;;;;;;4992224;28;20459;-79
2022/04/22 05:37:20;;;;;;;33.20;14.50;;;3.50;96.30;;;;;;4987659;28;20429;-77
2022/04/22 05:39:46;;;;;;;35.60;15.43;;;3.60;96.30;;;;;;5013829;28;20185;-79
2022/04/22 05:42:12;;;;;;;45.00;20.17;;;3.80;96.30;;;;;;4975620;28;20484;-76
2022/04/22 05:44:38;;;;;;;30.07;14.37;;;3.90;96.30;;;;;;4992662;28;20456;-76
2022/04/22 05:47:05;;;;;;;28.83;13.50;;;4.10;96.30;;;;;;4992550;28;20466;-75
2022/04/22 05:49:30;;;;;;;26.67;12.87;;;4.30;96.30;;;;;;4991984;28;20185;-76
2022/04/22 05:51:56;;;;;;;20.60;13.00;;;4.30;96.30;;;;;;4987720;28;20556;-83
2022/04/22 05:54:21;;;;;;;28.20;15.13;;;4.70;96.30;;;;;;4975557;28;20742;-80
2022/04/22 05:56:47;;;;;;;38.37;20.53;;;4.90;96.30;;;;;;4992875;28;20181;-76
2022/04/22 05:59:12;;;;;;;42.37;19.70;;;5.00;96.30;;;;;;4991749;28;20648;-76
2022/04/22 06:01:38;;;;;;;31.80;17.63;;;5.20;96.30;;;;;;4992494;28;20205;-76
2022/04/22 06:04:03;;;;;;;12.63;10.77;;;5.40;96.30;;;;;;4992286;28;20177;-79
2022/04/22 06:06:29;;;;;;;11.40;9.67;;;;;;;;;;4970121;28;20557;-78
2022/04/22 06:11:40;;;;;;;11.20;9.83;;;5.40;96.30;;;;;;4976020;28;20208;-78
2022/04/22 06:14:05;;;;;;;13.50;9.90;;;5.70;96.30;;;;;;4958151;28;20503;-77
2022/04/22 06:16:30;;;;;;;14.07;11.60;;;5.90;96.30;;;;;;4958783;28;20429;-80
2022/04/22 06:18:56;;;;;;;12.80;10.83;;;6.20;96.30;;;;;;4978062;28;20238;-79
2022/04/22 06:21:22;;;;;;;13.23;10.70;;;6.30;96.30;;;;;;4977923;28;20194;-78
2022/04/22 06:23:47;;;;;;;11.27;9.90;;;6.10;96.30;;;;;;4975736;28;20216;-75
2022/04/22 06:26:13;;;;;;;10.47;9.40;;;6.20;96.30;;;;;;4959599;28;20181;-77
2022/04/22 06:28:38;;;;;;;12.30;10.97;;;6.20;96.30;;;;;;4958999;28;20590;-79
2022/04/22 06:31:04;;;;;;;12.73;9.90;;;6.10;96.30;;;;;;4976862;28;20720;-77
2022/04/22 06:33:30;;;;;;;9.43;8.43;;;6.10;96.30;;;;;;4986253;28;20709;-77
2022/04/22 06:35:59;;;;;;;15.83;12.77;;;6.10;96.30;;;;;;4989793;28;20260;-77
2022/04/22 06:38:26;;;;;;;21.00;15.37;;;6.00;96.30;;;;;;4992237;28;20304;-77
2022/04/22 06:46:20;;;;;;;21.77;19.30;;;6.10;96.30;;;;;;4985802;28;20513;-77
2022/04/22 06:48:46;;;;;;;18.00;14.30;;;6.00;96.30;;;;;;4958606;28;20516;-77
2022/04/22 06:51:12;;;;;;;14.00;11.27;;;6.00;96.30;;;;;;4976698;28;20198;-78
2022/04/22 06:53:38;;;;;;;11.37;9.60;;;6.10;96.30;;;;;;4959329;28;20205;-76
2022/04/22 06:56:06;;;;;;;10.90;9.43;;;6.20;96.30;;;;;;4976252;28;20409;-77
2022/04/22 06:58:34;;;;;;;11.37;9.10;;;6.30;96.30;;;;;;4958387;28;20182;-76
2022/04/22 07:00:59;;;;;;;11.00;9.80;;;6.40;96.30;;;;;;4976369;28;20425;-77
2022/04/22 07:03:25;;;;;;;10.90;9.77;;;6.60;96.30;;;;;;4976658;28;20821;-76
2022/04/22 07:05:52;;;;;;;11.10;8.80;;;6.80;96.30;;;;;;4983847;28;20190;-77
2022/04/22 07:08:19;;;;;;;9.77;8.60;;;6.80;96.30;;;;;;4983567;28;20186;-76
2022/04/22 07:10:47;;;;;;;10.57;9.40;;;6.70;96.30;;;;;;4981586;28;20436;-77
2022/04/22 07:13:16;;;;;;;10.60;9.57;;;7.00;96.30;;;;;;4987371;28;20435;-77
2022/04/22 07:15:44;;;;;;;11.30;9.40;;;7.30;96.30;;;;;;4995302;28;20417;-76
2022/04/22 07:18:10;;;;;;;12.10;8.77;;;7.60;96.30;;;;;;4994473;28;20829;-74
2022/04/22 07:20:36;;;;;;;11.43;9.40;;;7.70;96.30;;;;;;4977665;28;21005;-74
2022/04/22 07:23:02;;;;;;;11.40;9.30;;;8.20;96.30;;;;;;4995065;28;20416;-74
2022/04/22 07:25:28;;;;;;;13.10;10.73;;;8.70;96.30;;;;;;4975624;28;20444;-75
2022/04/22 07:27:55;;;;;;;11.63;10.43;;;8.80;96.30;;;;;;4974936;28;20728;-76
2022/04/22 07:30:21;;;;;;;15.10;11.87;;;11.10;96.30;;;;;;4975474;28;20409;-76
2022/04/22 07:32:48;;;;;;;10.17;9.27;;;11.20;96.30;;;;;;4983759;28;20772;-75
2022/04/22 07:35:19;;;;;;;9.43;8.53;;;12.30;96.30;;;;;;4983844;28;20453;-77
2022/04/22 07:37:48;;;;;;;7.57;6.87;;;13.50;96.30;;;;;;4976388;28;20436;-75
2022/04/22 07:40:15;;;;;;;10.13;8.53;;;14.90;96.30;;;;;;4994660;28;20416;-76
2022/04/22 07:46:46;;;;;;;9.30;7.93;;;15.30;96.30;;;;;;4981285;28;20421;-78
2022/04/22 07:48:15;;;;;;;6.03;5.53;;;15.60;96.30;;;;;;4976011;28;20456;-78
2022/04/22 07:50:42;;;;;;;6.77;5.70;;;15.20;96.30;;;;;;4989951;28;20461;-78
2022/04/22 07:53:08;;;;;;;7.80;6.90;;;15.50;96.30;;;;;;4988261;28;20543;-77
2022/04/22 07:55:33;;;;;;;6.77;6.10;;;16.60;96.30;;;;;;4987545;28;20511;-78
2022/04/22 07:57:59;;;;;;;6.33;5.77;;;17.80;96.30;;;;;;4987671;28;20450;-78
2022/04/22 08:00:24;;;;;;;5.27;4.77;;;17.80;95.40;;;;;;4984008;28;20221;-79
2022/04/22 08:02:50;;;;;;;5.47;4.97;;;18.10;92.90;;;;;;4977093;28;20196;-79
2022/04/22 08:05:15;;;;;;;6.00;5.20;;;17.90;91.80;;;;;;4986104;28;20189;-79
2022/04/22 08:07:41;;;;;;;5.97;5.37;;;18.90;88.60;;;;;;4986605;28;20202;-77
2022/04/22 08:10:06;;;;;;;6.20;5.60;;;19.50;89.20;;;;;;4972150;28;20196;-78
2022/04/22 08:12:33;;;;;;;5.87;5.37;;;19.30;86.10;;;;;;4971288;28;20209;-79
2022/04/22 08:14:59;;;;;;;5.97;5.37;;;18.70;87.90;;;;;;4983319;28;20201;-78
2022/04/22 08:17:25;;;;;;;6.10;5.07;;;18.30;89.80;;;;;;4982671;28;20410;-78
2022/04/22 08:19:51;;;;;;;5.60;4.80;;;17.70;90.00;;;;;;4988429;28;20416;-75
2022/04/22 08:22:18;;;;;;;4.57;4.17;;;17.90;88.80;;;;;;4986286;28;20191;-76
2022/04/22 08:24:43;;;;;;;5.43;5.00;;;18.40;88.30;;;;;;4972959;28;20225;-76
2022/04/22 08:27:10;;;;;;;7.27;5.50;;;18.20;85.90;;;;;;4973283;28;20844;-74
2022/04/22 08:29:37;;;;;;;4.67;4.17;;;17.50;88.00;;;;;;4975288;28;20173;-76
2022/04/22 08:32:02;;;;;;;4.77;4.37;;;18.30;86.50;;;;;;4973814;28;20432;-76
2022/04/22 08:34:28;;;;;;;5.90;5.30;;;;;;;;;;4990325;28;20555;-77
2022/04/22 08:36:54;;;;;;;7.23;4.90;;;;;;;;;;4993681;28;20177;-76
2022/04/22 08:39:20;;;;;;;5.00;4.50;;;19.10;89.20;;;;;;4979108;28;20178;-76
2022/04/22 08:41:46;;;;;;;6.67;4.77;;;19.30;84.10;;;;;;4974077;28;20205;-76
2022/04/22 08:44:13;;;;;;;5.63;4.53;;;18.60;83.70;;;;;;4974016;28;20181;-76
2022/04/22 08:52:09;;;;;;;2.93;2.73;;;;;;;;;;4974149;28;20532;-76
2022/04/22 08:54:36;;;;;;;3.70;3.40;;;;;;;;;;4973803;28;20501;-76
2022/04/22 08:57:03;;;;;;;3.80;2.93;;;16.30;83.60;;;;;;4973895;28;20790;-76
2022/04/22 08:59:28;;;;;;;3.23;2.90;;;16.30;84.50;;;;;;4973652;28;20488;-76
2022/04/22 09:01:56;;;;;;;3.37;3.07;;;16.50;85.70;;;;;;4992086;28;20580;-76
2022/04/22 09:04:21;;;;;;;4.00;2.97;;;17.10;82.90;;;;;;4992563;28;20583;-76
2022/04/22 09:06:50;;;;;;;3.50;3.20;;;17.60;82.80;;;;;;4974322;28;20500;-76
2022/04/22 09:09:17;;;;;;;4.23;3.93;;;;;;;;;;4976530;28;20642;-78
2022/04/22 09:11:43;;;;;;;3.93;3.53;;;17.70;79.40;;;;;;4976388;28;20460;-77
2022/04/22 09:14:09;;;;;;;4.57;4.17;;;17.00;80.30;;;;;;4993201;28;20468;-76
2022/04/22 09:16:34;;;;;;;5.17;3.90;;;17.20;79.30;;;;;;4975839;28;20201;-76
2022/04/22 09:19:02;;;;;;;5.40;4.30;;;17.30;81.40;;;;;;4992772;28;20180;-77
2022/04/22 09:21:29;;;;;;;4.73;4.33;;;;;;;;;;4992888;28;20284;-77
2022/04/22 09:23:55;;;;;;;5.37;4.20;;;17.10;86.10;;;;;;4992926;28;20417;-77
2022/04/22 09:26:22;;;;;;;4.37;3.97;;;;;;;;;;4992681;28;20419;-77
2022/04/22 09:28:58;;;;;;;4.10;3.80;;;;;;;;;;4975584;28;20193;-77
2022/04/22 09:31:25;;;;;;;5.73;4.77;;;17.10;86.80;;;;;;4992831;28;20912;-76
2022/04/22 09:33:50;;;;;;;10.83;6.20;;;16.10;90.20;;;;;;4991737;28;20510;-79
2022/04/22 09:44:54;;;;;;;7.57;5.50;;;14.30;96.30;;;;;;4973881;28;20396;-77
2022/04/22 09:47:20;;;;;;;6.10;5.47;;;14.60;96.30;;;;;;4973487;28;20410;-77
2022/04/22 09:49:46;;;;;;;6.77;5.60;;;14.50;96.30;;;;;;4986804;28;20402;-79
2022/04/22 09:52:11;;;;;;;6.10;5.50;;;14.60;96.10;;;;;;4998031;28;20197;-82
2022/04/22 09:54:40;;;;;;;7.70;6.90;;;15.10;95.20;;;;;;4981919;28;20249;-82
2022/04/22 09:57:07;;;;;;;6.83;6.10;;;;;;;;;;4998792;28;20186;-80
2022/04/22 09:59:33;;;;;;;9.20;7.57;;;15.80;94.80;;;;;;4975821;28;20869;-75
2022/04/22 10:02:00;;;;;;;7.17;6.37;;;;;;;;;;4979271;28;20460;-75
2022/04/22 10:04:27;;;;;;;9.67;6.90;;;14.80;96.20;;;;;;4997036;28;20479;-76
2022/04/22 10:06:52;;;;;;;8.00;7.20;;;14.30;96.30;;;;;;4996938;28;20457;-75
2022/04/22 10:09:22;;;;;;;7.40;6.63;;;14.20;96.30;;;;;;4996811;28;20915;-75
2022/04/22 10:11:48;;;;;;;8.33;6.60;;;;;;;;;;4997174;28;20279;-75
2022/04/22 10:14:26;;;;;;;11.00;6.87;;;14.30;96.30;;;;;;4996776;28;20960;-75
2022/04/22 10:16:52;;;;;;;9.83;7.20;;;14.20;96.30;;;;;;4996983;28;20200;-78
2022/04/22 10:19:18;;;;;;;8.20;7.17;;;14.20;95.40;;;;;;4996964;28;20417;-77
2022/04/22 12:25:23;;;;;;;12.57;10.33;;;12.10;96.30;;;;;;5577575;22;20851;-76
2022/04/22 12:28:08;;;;;;;18.20;10.80;;;12.20;96.30;;;;;;4993779;28;20420;-76
2022/04/22 12:30:38;;;;;;;11.40;9.60;;;12.50;96.30;;;;;;4976332;28;20494;-75
2022/04/22 12:33:06;;;;;;;13.13;9.90;;;12.90;96.30;;;;;;4993935;28;20421;-75
2022/04/22 12:35:32;;;;;;;15.27;10.93;;;13.10;96.30;;;;;;4993514;28;21071;-75
2022/04/22 12:38:03;;;;;;;12.77;7.13;;;13.00;96.30;;;;;;4993503;28;20455;-77
2022/04/22 12:40:44;;;;;;;10.20;9.03;;;12.90;96.30;;;;;;4979965;28;20417;-79
2022/04/22 12:43:26;;;;;;;16.47;10.57;;;12.50;96.30;;;;;;4990714;28;20405;-77
2022/04/22 12:54:16;;;;;;;13.00;9.40;;;12.00;96.30;;;;;;4993526;28;20483;-76
2022/04/22 12:56:50;;;;;;;11.80;8.40;;;12.10;96.30;;;;;;4983708;28;20413;-76
2022/04/22 12:59:15;;;;;;;9.93;8.40;;;12.10;96.30;;;;;;4973263;28;20410;-76
2022/04/22 13:01:42;;;;;;;10.87;8.13;;;;;;;;;;4973170;28;20450;-76
2022/04/22 13:04:20;;;;;;;10.20;7.73;;;12.00;96.30;;;;;;4977209;28;20206;-76
2022/04/22 13:06:50;;;;;;;10.40;8.40;;;12.00;96.30;;;;;;4973694;28;20420;-76
2022/04/22 13:09:17;;;;;;;13.50;7.70;;;12.00;96.30;;;;;;4956233;28;20856;-77
2022/04/22 13:11:43;;;;;;;8.43;7.47;;;12.00;96.30;;;;;;4956312;28;20504;-76
2022/04/22 13:14:11;;;;;;;9.73;7.03;;;;;;;;;;4973735;28;20457;-75
2022/04/22 13:16:37;;;;;;;9.13;7.10;;;12.00;96.30;;;;;;4987999;28;20417;-76
2022/04/22 13:19:03;;;;;;;10.10;6.37;;;12.10;96.30;;;;;;4992786;28;20796;-76
2022/04/22 13:21:29;;;;;;;9.43;7.13;;;12.00;96.30;;;;;;4992913;28;20309;-76
2022/04/22 13:23:55;;;;;;;8.27;6.70;;;12.00;96.30;;;;;;4990434;28;20256;-77
2022/04/22 13:26:21;;;;;;;10.43;6.73;;;12.00;96.30;;;;;;4956272;28;20550;-77
2022/04/22 13:28:48;;;;;;;9.80;7.67;;;12.10;96.30;;;;;;4980589;28;20482;-75
2022/04/22 13:31:13;;;;;;;10.43;7.30;;;12.10;96.30;;;;;;4975817;28;20433;-76
2022/04/22 13:33:39;;;;;;;7.20;6.00;;;12.20;96.30;;;;;;4991959;28;20603;-76
2022/04/22 13:36:07;;;;;;;6.27;4.80;;;12.10;96.30;;;;;;4975272;28;20223;-76
2022/04/22 13:38:34;;;;;;;5.30;4.80;;;;;;;;;;4975210;28;20239;-76
2022/04/22 13:41:04;;;;;;;6.40;5.00;;;;;;;;;;4973524;28;20433;-76
2022/04/22 13:43:30;;;;;;;6.73;6.13;;;12.10;96.30;;;;;;4973106;28;20488;-77
2022/04/22 13:54:09;;;;;;;12.03;6.60;;;;;;;;;;4973855;28;20460;-75
2022/04/22 13:56:35;;;;;;;9.93;6.50;;;;;;;;;;4973182;28;20666;-76
2022/04/22 13:59:01;;;;;;;7.60;6.50;;;11.70;96.30;;;;;;4973093;28;20497;-75
2022/04/22 14:01:26;;;;;;;7.30;5.77;;;11.60;96.30;;;;;;4973154;28;20194;-75
2022/04/22 14:03:52;;;;;;;8.67;6.30;;;11.60;96.30;;;;;;4978700;28;20189;-76
2022/04/22 14:06:18;;;;;;;8.67;5.90;;;;;;;;;;4955909;28;20189;-75
2022/04/22 14:08:43;;;;;;;6.80;6.10;;;11.60;96.30;;;;;;4972997;28;20178;-75
2022/04/22 14:11:09;;;;;;;7.90;6.10;;;;;;;;;;4973030;28;20805;-75
2022/04/22 14:13:35;;;;;;;7.57;6.87;;;11.50;96.30;;;;;;4973042;28;20356;-75
2022/04/22 14:16:01;;;;;;;9.93;7.23;;;11.60;96.30;;;;;;4955774;28;20981;-75
2022/04/22 14:18:31;;;;;;;7.70;6.50;;;;;;;;;;4972878;28;20177;-75
2022/04/22 14:21:00;;;;;;;9.33;7.77;;;11.60;96.30;;;;;;4973084;28;20552;-76
2022/04/22 14:23:26;;;;;;;11.73;6.20;;;;;;;;;;4973046;28;20428;-75
2022/04/22 14:25:54;;;;;;;12.07;7.60;;;;;;;;;;4972839;28;20817;-75
2022/04/22 14:28:22;;;;;;;7.90;7.10;;;;;;;;;;4972953;28;20685;-75
2022/04/22 14:30:48;;;;;;;8.43;6.40;;;11.40;96.30;;;;;;4972977;28;20485;-75
2022/04/22 14:33:13;;;;;;;7.13;6.43;;;11.40;96.30;;;;;;4972997;28;20414;-75
2022/04/22 14:35:39;;;;;;;9.60;7.33;;;11.30;96.30;;;;;;4972811;28;20614;-75
2022/04/22 14:38:05;;;;;;;8.60;6.97;;;;;;;;;;4972831;28;20229;-75
2022/04/22 14:40:31;;;;;;;7.43;6.13;;;;;;;;;;4972770;28;20631;-75
2022/04/22 14:42:56;;;;;;;8.90;7.53;;;11.10;96.30;;;;;;4972842;28;20410;-75
2022/04/22 14:45:22;;;;;;;9.00;7.00;;;11.10;96.30;;;;;;4975942;28;20886;-75
2022/04/22 14:47:48;;;;;;;10.70;9.60;;;11.10;96.30;;;;;;4976284;28;20193;-76
2022/04/22 14:50:14;;;;;;;18.43;11.50;;;11.10;96.30;;;;;;4976317;28;20178;-77
2022/04/22 14:52:40;;;;;;;7.13;6.40;;;11.10;96.30;;;;;;4976306;28;20630;-75
2022/04/22 14:55:06;;;;;;;8.67;6.10;;;10.90;96.30;;;;;;4976036;28;20457;-74
2022/04/22 14:57:32;;;;;;;7.70;6.90;;;10.90;96.30;;;;;;4976094;28;20410;-78
2022/04/22 14:59:58;;;;;;;8.67;4.43;;;;;;;;;;4958539;28;20508;-77
2022/04/22 15:02:24;;;;;;;24.77;6.27;;;;;;;;;;4982522;28;20236;-77
2022/04/22 15:04:51;;;;;;;8.00;7.17;;;10.80;96.30;;;;;;4966918;28;20433;-76
2022/04/22 15:07:21;;;;;;;15.93;6.30;;;;;;;;;;4980903;28;20623;-75
2022/04/22 15:09:47;;;;;;;7.13;6.23;;;;;;;;;;4987368;28;20949;-77
2022/04/22 15:12:13;;;;;;;6.50;5.80;;;10.90;96.30;;;;;;4976230;28;20468;-77
2022/04/22 15:14:40;;;;;;;10.57;8.70;;;;;;;;;;4979457;28;20241;-76
2022/04/22 15:17:06;;;;;;;12.50;5.90;;;;;;;;;;4978112;28;20688;-77
2022/04/22 15:24:59;;;;;;;7.90;6.60;;;10.90;96.30;;;;;;4976065;28;20495;-74
2022/04/22 15:27:25;;;;;;;9.80;6.10;;;;;;;;;;4994993;28;20429;-76
2022/04/22 15:29:51;;;;;;;17.37;8.50;;;10.80;96.30;;;;;;4997079;28;20177;-77
2022/04/22 15:32:17;;;;;;;6.90;5.40;;;;;;;;;;4996757;28;20216;-77
2022/04/22 15:34:43;;;;;;;8.30;5.97;;;;;;;;;;4980192;28;20240;-75
2022/04/22 15:37:08;;;;;;;6.47;5.87;;;10.80;96.30;;;;;;4994907;28;20174;-75
2022/04/22 15:39:34;;;;;;;7.57;6.40;;;10.70;96.30;;;;;;4994694;28;20657;-75
2022/04/22 15:41:59;;;;;;;7.33;5.90;;;10.70;96.30;;;;;;4994757;28;20185;-74
2022/04/22 15:44:29;;;;;;;6.63;5.93;;;;;;;;;;4994728;28;20178;-75
2022/04/22 15:46:55;;;;;;;8.73;6.60;;;10.60;96.30;;;;;;4994675;28;20165;-74
2022/04/22 15:49:21;;;;;;;8.87;6.37;;;;;;;;;;4994400;28;20413;-75
2022/04/22 15:51:47;;;;;;;15.17;10.47;;;;;;;;;;4994322;28;20447;-75
2022/04/22 15:54:13;;;;;;;7.30;5.67;;;10.60;96.30;;;;;;4976340;28;20283;-76
2022/04/22 15:56:38;;;;;;;8.70;6.03;;;10.60;96.30;;;;;;4977534;28;20934;-75
2022/04/22 15:59:05;;;;;;;7.63;6.17;;;10.60;96.30;;;;;;4986481;28;20174;-75
2022/04/22 16:01:35;;;;;;;8.60;6.77;;;;;;;;;;4985413;28;20201;-75
2022/04/22 16:04:02;;;;;;;8.90;7.03;;;;;;;;;;4983912;28;20401;-75
2022/04/22 16:06:28;;;;;;;8.97;7.20;;;;;;;;;;4974944;28;20782;-74
2022/04/22 16:08:54;;;;;;;8.30;7.00;;;;;;;;;;4985520;28;20466;-76
2022/04/22 16:16:49;;;;;;;8.33;6.90;;;10.30;96.30;;;;;;4980443;28;20472;-75
2022/04/22 16:19:14;;;;;;;13.60;8.00;;;10.20;96.30;;;;;;4991915;28;20417;-76
2022/04/22 16:21:40;;;;;;;9.77;7.00;;;;;;;;;;4979735;28;20198;-76
2022/04/22 16:24:07;;;;;;;10.77;8.73;;;;;;;;;;4985943;28;20197;-76
2022/04/22 16:26:33;;;;;;;23.00;16.50;;;10.20;96.30;;;;;;4974695;28;20438;-77
2022/04/22 16:28:59;;;;;;;9.67;8.13;;;10.20;96.30;;;;;;4966154;28;20420;-75
2022/04/22 16:31:26;;;;;;;11.53;8.43;;;;;;;;;;4978486;28;20452;-76
2022/04/22 16:33:52;;;;;;;11.07;7.23;;;10.20;96.30;;;;;;4980482;28;20461;-76
2022/04/22 16:36:19;;;;;;;9.83;8.17;;;10.20;96.30;;;;;;4966564;28;20763;-77
2022/04/22 16:38:45;;;;;;;9.60;7.63;;;10.20;96.30;;;;;;4993596;28;20905;-77
2022/04/22 16:41:16;;;;;;;10.00;8.27;;;10.20;96.30;;;;;;4985961;28;20451;-77
2022/04/22 16:43:42;;;;;;;9.27;8.37;;;;;;;;;;4986801;28;20472;-76
2022/04/22 16:46:08;;;;;;;16.13;9.63;;;;;;;;;;4980442;28;20976;-76
2022/04/22 16:48:37;;;;;;;8.90;8.00;;;10.20;96.30;;;;;;4993399;28;20504;-76
2022/04/22 16:51:04;;;;;;;8.73;7.43;;;;;;;;;;4988412;28;20445;-76
2022/04/22 16:53:33;;;;;;;10.33;8.53;;;10.10;96.30;;;;;;4983628;28;20448;-77
2022/04/22 16:55:59;;;;;;;10.90;8.10;;;10.10;96.30;;;;;;4977694;28;20922;-77
2022/04/22 16:58:25;;;;;;;14.10;8.00;;;10.10;96.30;;;;;;4983040;28;20418;-76
2022/04/22 17:00:51;;;;;;;14.37;9.10;;;10.10;96.30;;;;;;4963920;28;20673;-77
2022/04/22 17:03:16;;;;;;;11.63;8.43;;;10.10;96.30;;;;;;4966980;28;20177;-76
2022/04/22 17:05:44;;;;;;;15.80;11.17;;;;;;;;;;4988170;28;20192;-77
2022/04/22 17:08:11;;;;;;;16.80;12.10;;;10.10;96.30;;;;;;4983194;28;20178;-76
2022/04/22 17:10:36;;;;;;;22.83;13.43;;;10.00;96.30;;;;;;4964483;28;20457;-76
2022/04/22 17:13:02;;;;;;;23.83;15.00;;;;;;;;;;4990204;28;20870;-77
2022/04/22 17:23:40;;;;;;;12.63;10.77;;;9.80;96.30;;;;;;4985176;28;20408;-76
2022/04/22 17:26:07;;;;;;;12.87;10.57;;;9.70;96.30;;;;;;4958980;28;20437;-76
2022/04/22 17:28:33;;;;;;;16.60;11.07;;;9.70;96.30;;;;;;4960598;28;20312;-77
2022/04/22 17:30:58;;;;;;;18.77;14.43;;;9.60;96.30;;;;;;4983815;28;20461;-76
2022/04/22 17:33:24;;;;;;;19.37;14.97;;;;;;;;;;4973949;28;20683;-76
2022/04/22 17:35:50;;;;;;;16.87;12.70;;;9.60;96.30;;;;;;4964252;28;20189;-76
2022/04/22 17:38:15;;;;;;;16.80;9.70;;;9.50;96.30;;;;;;4981176;28;20498;-75
2022/04/22 17:40:42;;;;;;;15.90;13.50;;;9.50;96.30;;;;;;4973829;28;20225;-76
2022/04/22 17:43:07;;;;;;;16.73;13.53;;;9.50;96.30;;;;;;4985215;28;20208;-74
2022/04/22 17:45:33;;;;;;;26.43;18.77;;;9.40;96.30;;;;;;4966653;28;20468;-74
2022/04/22 17:47:58;;;;;;;27.53;15.17;;;9.40;96.30;;;;;;4991323;28;20181;-74
2022/04/22 17:50:24;;;;;;;20.93;15.53;;;;;;;;;;4966929;28;20182;-75
2022/04/22 17:52:51;;;;;;;22.97;16.20;;;9.30;96.30;;;;;;4975257;28;20181;-76
2022/04/22 17:55:20;;;;;;;14.93;12.50;;;9.30;96.30;;;;;;4992497;28;20591;-74
2022/04/22 17:57:46;;;;;;;14.93;11.37;;;;;;;;;;4992226;28;20413;-74
2022/04/22 18:00:13;;;;;;;15.47;11.20;;;9.40;96.30;;;;;;4992389;28;20858;-74
2022/04/22 18:02:39;;;;;;;15.80;12.00;;;9.40;96.30;;;;;;4992498;28;20417;-74
2022/04/22 18:05:06;;;;;;;15.53;12.50;;;9.30;96.30;;;;;;4984187;28;20439;-74
2022/04/22 18:07:32;;;;;;;12.70;11.43;;;9.30;96.30;;;;;;4992174;28;20642;-74
2022/04/22 18:09:58;;;;;;;13.90;11.83;;;9.20;96.30;;;;;;4992628;28;20424;-74
2022/04/22 18:12:24;;;;;;;13.83;10.57;;;;;;;;;;4989905;28;20610;-74
2022/04/22 18:17:35;;;;;;;15.53;11.77;;;9.20;96.30;;;;;;4983344;28;20466;-75
2022/04/22 18:20:01;;;;;;;11.97;10.00;;;9.20;96.30;;;;;;4987670;28;20405;-77
2022/04/22 18:22:26;;;;;;;10.20;9.10;;;9.30;96.30;;;;;;4973947;28;20434;-78
2022/04/22 18:24:52;;;;;;;10.70;8.83;;;9.30;96.30;;;;;;4990692;28;20206;-75
2022/04/22 18:27:18;;;;;;;11.13;9.23;;;9.30;96.30;;;;;;4959264;28;20653;-76
2022/04/22 18:29:45;;;;;;;13.90;12.20;;;9.10;96.30;;;;;;4964569;28;20209;-75
2022/04/22 18:32:10;;;;;;;20.57;13.80;;;9.00;96.30;;;;;;4995920;28;20445;-75
2022/04/22 18:34:36;;;;;;;18.67;13.97;;;8.90;96.30;;;;;;4972053;28;20896;-76
2022/04/22 18:37:01;;;;;;;32.17;18.47;;;8.90;96.30;;;;;;4983687;28;20546;-78
2022/04/22 18:39:27;;;;;;;58.40;34.37;;;8.90;96.30;;;;;;4975666;28;20178;-75
2022/04/22 18:41:52;;;;;;;58.13;39.97;;;8.80;96.30;;;;;;4959147;28;20206;-75
2022/04/22 18:44:19;;;;;;;58.60;45.53;;;8.80;96.30;;;;;;4976589;28;20615;-75
2022/04/22 18:46:44;;;;;;;39.53;26.97;;;8.80;96.30;;;;;;4958024;28;20174;-78
2022/04/22 18:49:10;;;;;;;24.17;18.83;;;8.80;96.30;;;;;;4976592;28;20431;-77
2022/04/22 18:51:36;;;;;;;20.70;15.57;;;8.80;96.30;;;;;;4959858;28;20210;-78
2022/04/22 18:54:03;;;;;;;20.10;12.33;;;8.90;96.30;;;;;;4977180;28;20205;-77
2022/04/22 18:56:29;;;;;;;11.20;10.00;;;8.90;96.30;;;;;;4959343;28;20509;-78
2022/04/22 18:58:54;;;;;;;14.03;10.10;;;;;;;;;;4958784;28;20453;-77
2022/04/22 19:01:22;;;;;;;12.53;9.90;;;8.80;96.30;;;;;;4988868;28;20213;-78
2022/04/22 19:03:48;;;;;;;11.20;9.90;;;8.90;96.30;;;;;;4989819;28;20657;-78
2022/04/22 19:06:13;;;;;;;17.63;10.13;;;8.90;96.30;;;;;;4979132;28;20483;-78
2022/04/22 19:08:39;;;;;;;11.23;9.90;;;8.80;96.30;;;;;;4978908;28;20503;-78
2022/04/22 19:11:05;;;;;;;12.00;10.43;;;;;;;;;;4979409;28;20201;-77
2022/04/22 19:13:32;;;;;;;16.57;9.30;;;;;;;;;;4995777;28;20638;-77
2022/04/22 19:15:58;;;;;;;13.33;9.53;;;8.80;96.30;;;;;;4995881;28;20405;-78
2022/04/22 19:18:24;;;;;;;13.03;9.20;;;8.80;96.30;;;;;;4978926;28;21003;-79
2022/04/22 19:20:49;;;;;;;10.30;8.87;;;8.80;96.30;;;;;;4979103;28;20980;-79
2022/04/22 19:23:15;;;;;;;10.43;9.33;;;8.70;96.30;;;;;;4996050;28;20405;-78
2022/04/22 19:25:42;;;;;;;9.17;8.23;;;8.70;96.30;;;;;;4978583;28;20279;-78
2022/04/22 19:28:09;;;;;;;10.73;9.43;;;8.70;96.30;;;;;;4998340;28;20413;-79
2022/04/22 19:30:36;;;;;;;14.20;9.83;;;8.70;96.30;;;;;;4998389;28;20800;-77
2022/04/22 19:33:03;;;;;;;15.00;11.50;;;8.70;96.30;;;;;;4999287;28;20408;-78
2022/04/22 19:35:32;;;;;;;12.00;9.57;;;8.70;96.30;;;;;;4998314;28;20602;-80
2022/04/22 19:40:54;;;;;;;15.03;11.27;;;8.60;96.30;;;;;;4994021;28;20429;-77
2022/04/22 19:43:24;;;;;;;12.00;10.10;;;8.60;96.30;;;;;;4996009;28;20440;-77
2022/04/22 19:45:52;;;;;;;16.27;11.53;;;8.50;96.30;;;;;;4996358;28;20519;-77
2022/04/22 19:48:19;;;;;;;15.37;12.10;;;8.40;96.30;;;;;;4977965;28;20423;-76
2022/04/22 19:50:48;;;;;;;15.03;12.90;;;8.40;96.30;;;;;;4985647;28;20442;-78
2022/04/22 19:53:15;;;;;;;17.80;12.93;;;8.30;96.30;;;;;;4976989;28;20448;-78
2022/04/22 19:55:42;;;;;;;15.50;13.57;;;8.30;96.30;;;;;;4995017;28;20456;-77
2022/04/22 19:58:09;;;;;;;15.57;13.00;;;8.30;96.30;;;;;;4976934;28;20439;-77
2022/04/22 20:00:41;;;;;;;20.23;14.83;;;8.40;96.30;;;;;;4986214;28;20426;-76
2022/04/22 20:03:09;;;;;;;18.57;14.13;;;8.40;96.30;;;;;;4993334;28;20416;-76
2022/04/22 20:05:35;;;;;;;16.33;13.47;;;;;;;;;;4994960;28;21041;-77
2022/04/22 20:08:01;;;;;;;18.63;14.30;;;8.50;96.30;;;;;;4968024;28;20436;-75
2022/04/22 20:10:26;;;;;;;19.10;15.17;;;8.40;96.30;;;;;;4985133;28;20783;-78
2022/04/22 20:12:53;;;;;;;20.20;13.10;;;8.40;96.30;;;;;;4994036;28;20621;-78
2022/04/22 20:15:19;;;;;;;22.53;14.40;;;8.40;96.30;;;;;;4996670;28;20284;-75
2022/04/22 20:17:47;;;;;;;18.43;13.30;;;8.30;96.30;;;;;;4990005;28;20475;-77
2022/04/22 20:20:13;;;;;;;19.50;14.33;;;8.30;96.30;;;;;;4968470;28;20800;-76
2022/04/22 20:22:38;;;;;;;16.53;13.97;;;8.40;96.30;;;;;;4986547;28;20437;-78
2022/04/22 20:25:05;;;;;;;17.10;13.03;;;8.40;96.30;;;;;;4959554;28;20198;-77
2022/04/22 20:27:30;;;;;;;15.60;14.00;;;8.40;96.30;;;;;;4973859;28;20220;-76
2022/04/22 20:29:56;;;;;;;18.77;15.87;;;8.40;96.30;;;;;;4974704;28;20504;-79